sensor_id;sensor_type;location;lat;lon;timestamp;temperature;humidity
10304;DHT22;5197;48.152;8.590;2023-05-29T00:00:39;13.60;1.00
10304;DHT22;5197;48.152;8.590;2023-05-29T00:03:06;13.60;1.00
10304;DHT22;5197;48.152;8.590;2023-05-29T00:05:33;13.40;1.00
10304;DHT22;5197;48.152;8.590;2023-05-29T00:08:00;13.30;1.00
10304;DHT22;5197;48.152;8.590;2023-05-29T00:10:27;13.20;1.00
10304;DHT22;5197;48.152;8.590;2023-05-29T00:12:54;13.10;1.00
10304;DHT22;5197;48.152;8.590;2023-05-29T00:15:23;13.00;1.00
10304;DHT22;5197;48.152;8.590;2023-05-29T00:17:50;12.90;1.00
10304;DHT22;5197;48.152;8.590;2023-05-29T00:20:17;12.90;1.00
10304;DHT22;5197;48.152;8.590;2023-05-29T00:22:45;12.80;1.00
10304;DHT22;5197;48.152;8.590;2023-05-29T00:25:12;12.80;1.00
10304;DHT22;5197;48.152;8.590;2023-05-29T00:27:39;12.70;1.00
10304;DHT22;5197;48.152;8.590;2023-05-29T00:30:07;12.70;1.00
10304;DHT22;5197;48.152;8.590;2023-05-29T00:32:34;12.70;1.00
10304;DHT22;5197;48.152;8.590;2023-05-29T00:35:02;12.70;1.00
10304;DHT22;5197;48.152;8.590;2023-05-29T00:37:29;12.60;1.00
10304;DHT22;5197;48.152;8.590;2023-05-29T00:39:56;12.50;1.00
10304;DHT22;5197;48.152;8.590;2023-05-29T00:42:23;12.40;1.00
10304;DHT22;5197;48.152;8.590;2023-05-29T00:44:50;12.30;1.00
10304;DHT22;5197;48.152;8.590;2023-05-29T00:47:17;12.10;1.00
10304;DHT22;5197;48.152;8.590;2023-05-29T00:49:44;12.10;1.00
10304;DHT22;5197;48.152;8.590;2023-05-29T00:52:12;12.10;1.00
10304;DHT22;5197;48.152;8.590;2023-05-29T00:54:44;12.10;1.00
10304;DHT22;5197;48.152;8.590;2023-05-29T00:57:13;12.10;1.00
10304;DHT22;5197;48.152;8.590;2023-05-29T00:59:41;11.90;1.00
10304;DHT22;5197;48.152;8.590;2023-05-29T01:02:09;12.10;1.00
10304;DHT22;5197;48.152;8.590;2023-05-29T01:04:36;12.10;1.00
10304;DHT22;5197;48.152;8.590;2023-05-29T01:07:04;12.10;1.00
10304;DHT22;5197;48.152;8.590;2023-05-29T01:09:31;12.10;1.00
10304;DHT22;5197;48.152;8.590;2023-05-29T01:24:18;12.10;1.00
10304;DHT22;5197;48.152;8.590;2023-05-29T01:27:09;12.00;1.00
10304;DHT22;5197;48.152;8.590;2023-05-29T01:29:39;12.00;1.00
10304;DHT22;5197;48.152;8.590;2023-05-29T01:32:10;12.00;1.00
10304;DHT22;5197;48.152;8.590;2023-05-29T01:34:38;11.90;1.00
10304;DHT22;5197;48.152;8.590;2023-05-29T01:37:05;11.80;1.00
10304;DHT22;5197;48.152;8.590;2023-05-29T01:39:32;11.70;1.00
10304;DHT22;5197;48.152;8.590;2023-05-29T01:42:00;11.70;1.00
10304;DHT22;5197;48.152;8.590;2023-05-29T01:44:28;11.60;1.00
10304;DHT22;5197;48.152;8.590;2023-05-29T01:46:56;11.60;1.00
10304;DHT22;5197;48.152;8.590;2023-05-29T01:49:26;11.50;1.00
10304;DHT22;5197;48.152;8.590;2023-05-29T01:51:53;11.50;1.00
10304;DHT22;5197;48.152;8.590;2023-05-29T01:54:20;11.60;1.00
10304;DHT22;5197;48.152;8.590;2023-05-29T01:56:48;11.50;1.00
10304;DHT22;5197;48.152;8.590;2023-05-29T01:59:16;11.50;1.00
10304;DHT22;5197;48.152;8.590;2023-05-29T02:01:44;11.30;1.00
10304;DHT22;5197;48.152;8.590;2023-05-29T02:04:11;11.10;1.00
10304;DHT22;5197;48.152;8.590;2023-05-29T02:06:38;11.00;1.00
10304;DHT22;5197;48.152;8.590;2023-05-29T02:09:05;11.00;1.00
10304;DHT22;5197;48.152;8.590;2023-05-29T02:11:33;11.00;1.00
10304;DHT22;5197;48.152;8.590;2023-05-29T02:14:00;11.00;1.00
10304;DHT22;5197;48.152;8.590;2023-05-29T02:16:29;10.90;1.00
10304;DHT22;5197;48.152;8.590;2023-05-29T02:19:01;10.80;1.00
10304;DHT22;5197;48.152;8.590;2023-05-29T02:21:28;10.70;1.00
10304;DHT22;5197;48.152;8.590;2023-05-29T02:23:55;10.60;1.00
10304;DHT22;5197;48.152;8.590;2023-05-29T02:26:22;10.50;1.00
10304;DHT22;5197;48.152;8.590;2023-05-29T02:28:49;10.40;1.00
10304;DHT22;5197;48.152;8.590;2023-05-29T02:31:16;10.40;1.00
10304;DHT22;5197;48.152;8.590;2023-05-29T02:33:43;10.30;1.20
10304;DHT22;5197;48.152;8.590;2023-05-29T02:36:10;10.20;1.50
10304;DHT22;5197;48.152;8.590;2023-05-29T02:38:38;10.20;1.80
10304;DHT22;5197;48.152;8.590;2023-05-29T02:41:05;10.10;1.90
10304;DHT22;5197;48.152;8.590;2023-05-29T02:43:32;10.10;2.40
10304;DHT22;5197;48.152;8.590;2023-05-29T02:45:59;10.10;2.50
10304;DHT22;5197;48.152;8.590;2023-05-29T02:48:27;10.10;2.70
10304;DHT22;5197;48.152;8.590;2023-05-29T02:50:54;10.10;2.90
10304;DHT22;5197;48.152;8.590;2023-05-29T02:53:21;10.20;3.00
10304;DHT22;5197;48.152;8.590;2023-05-29T02:55:50;10.20;3.10
10304;DHT22;5197;48.152;8.590;2023-05-29T02:58:18;10.30;3.00
10304;DHT22;5197;48.152;8.590;2023-05-29T03:00:45;10.30;2.80
10304;DHT22;5197;48.152;8.590;2023-05-29T03:03:13;10.30;2.60
10304;DHT22;5197;48.152;8.590;2023-05-29T03:05:40;10.20;2.60
10304;DHT22;5197;48.152;8.590;2023-05-29T03:08:07;10.10;2.80
10304;DHT22;5197;48.152;8.590;2023-05-29T03:10:34;9.90;3.80
10304;DHT22;5197;48.152;8.590;2023-05-29T03:13:01;9.80;3.90
10304;DHT22;5197;48.152;8.590;2023-05-29T03:15:28;9.70;4.30
10304;DHT22;5197;48.152;8.590;2023-05-29T03:17:55;9.60;4.60
10304;DHT22;5197;48.152;8.590;2023-05-29T03:20:22;9.60;4.90
10304;DHT22;5197;48.152;8.590;2023-05-29T03:22:50;9.60;5.10
10304;DHT22;5197;48.152;8.590;2023-05-29T03:25:17;9.60;5.10
10304;DHT22;5197;48.152;8.590;2023-05-29T03:27:45;9.50;6.20
10304;DHT22;5197;48.152;8.590;2023-05-29T03:30:12;9.60;5.40
10304;DHT22;5197;48.152;8.590;2023-05-29T03:32:39;9.60;6.40
10304;DHT22;5197;48.152;8.590;2023-05-29T03:35:07;9.60;5.80
10304;DHT22;5197;48.152;8.590;2023-05-29T03:37:34;9.60;6.70
10304;DHT22;5197;48.152;8.590;2023-05-29T03:40:02;9.60;6.50
10304;DHT22;5197;48.152;8.590;2023-05-29T03:42:29;9.50;6.30
10304;DHT22;5197;48.152;8.590;2023-05-29T03:44:58;9.40;6.10
10304;DHT22;5197;48.152;8.590;2023-05-29T03:47:25;9.30;6.30
10304;DHT22;5197;48.152;8.590;2023-05-29T03:49:52;9.30;6.60
10304;DHT22;5197;48.152;8.590;2023-05-29T03:52:19;9.20;6.40
10304;DHT22;5197;48.152;8.590;2023-05-29T03:54:46;9.20;6.50
10304;DHT22;5197;48.152;8.590;2023-05-29T03:57:13;9.10;6.50
10304;DHT22;5197;48.152;8.590;2023-05-29T03:59:40;9.20;6.70
10304;DHT22;5197;48.152;8.590;2023-05-29T04:02:07;9.20;6.80
10304;DHT22;5197;48.152;8.590;2023-05-29T04:04:34;9.20;6.70
10304;DHT22;5197;48.152;8.590;2023-05-29T04:07:02;9.20;7.10
10304;DHT22;5197;48.152;8.590;2023-05-29T04:09:29;9.20;6.80
10304;DHT22;5197;48.152;8.590;2023-05-29T04:11:56;9.20;6.80
10304;DHT22;5197;48.152;8.590;2023-05-29T04:14:23;9.20;6.90
10304;DHT22;5197;48.152;8.590;2023-05-29T04:16:50;9.20;7.20
10304;DHT22;5197;48.152;8.590;2023-05-29T04:19:17;9.30;7.60
10304;DHT22;5197;48.152;8.590;2023-05-29T04:21:45;9.30;7.80
10304;DHT22;5197;48.152;8.590;2023-05-29T04:24:14;9.40;8.00
10304;DHT22;5197;48.152;8.590;2023-05-29T04:26:41;9.40;7.90
10304;DHT22;5197;48.152;8.590;2023-05-29T04:29:09;9.50;7.90
10304;DHT22;5197;48.152;8.590;2023-05-29T04:31:39;9.50;7.70
10304;DHT22;5197;48.152;8.590;2023-05-29T04:34:07;9.50;7.80
10304;DHT22;5197;48.152;8.590;2023-05-29T04:36:34;9.50;8.20
10304;DHT22;5197;48.152;8.590;2023-05-29T04:39:06;9.50;8.70
10304;DHT22;5197;48.152;8.590;2023-05-29T04:41:34;9.50;8.90
10304;DHT22;5197;48.152;8.590;2023-05-29T04:44:02;9.60;9.30
10304;DHT22;5197;48.152;8.590;2023-05-29T04:46:30;9.60;9.30
10304;DHT22;5197;48.152;8.590;2023-05-29T04:48:57;9.70;9.80
10304;DHT22;5197;48.152;8.590;2023-05-29T04:51:25;9.80;9.80
10304;DHT22;5197;48.152;8.590;2023-05-29T04:53:52;9.90;10.00
10304;DHT22;5197;48.152;8.590;2023-05-29T04:56:19;9.90;10.00
10304;DHT22;5197;48.152;8.590;2023-05-29T04:58:47;10.00;9.30
10304;DHT22;5197;48.152;8.590;2023-05-29T05:01:14;10.00;9.90
10304;DHT22;5197;48.152;8.590;2023-05-29T05:03:41;10.10;9.90
10304;DHT22;5197;48.152;8.590;2023-05-29T05:06:09;10.10;10.20
10304;DHT22;5197;48.152;8.590;2023-05-29T05:08:36;10.20;10.50
10304;DHT22;5197;48.152;8.590;2023-05-29T05:11:04;10.20;10.80
10304;DHT22;5197;48.152;8.590;2023-05-29T05:13:31;10.30;11.00
10304;DHT22;5197;48.152;8.590;2023-05-29T05:15:58;10.40;11.30
10304;DHT22;5197;48.152;8.590;2023-05-29T05:18:25;10.50;11.90
10304;DHT22;5197;48.152;8.590;2023-05-29T05:20:52;10.50;12.00
10304;DHT22;5197;48.152;8.590;2023-05-29T05:23:20;10.60;12.20
10304;DHT22;5197;48.152;8.590;2023-05-29T05:25:47;10.60;12.20
10304;DHT22;5197;48.152;8.590;2023-05-29T05:28:14;10.60;11.90
10304;DHT22;5197;48.152;8.590;2023-05-29T05:30:41;10.70;12.80
10304;DHT22;5197;48.152;8.590;2023-05-29T05:33:08;10.70;13.10
10304;DHT22;5197;48.152;8.590;2023-05-29T05:35:36;10.80;13.40
10304;DHT22;5197;48.152;8.590;2023-05-29T05:38:03;10.90;13.80
10304;DHT22;5197;48.152;8.590;2023-05-29T05:40:30;11.10;14.20
10304;DHT22;5197;48.152;8.590;2023-05-29T05:42:58;11.20;14.50
10304;DHT22;5197;48.152;8.590;2023-05-29T05:45:25;11.40;15.30
10304;DHT22;5197;48.152;8.590;2023-05-29T05:47:52;11.70;15.70
10304;DHT22;5197;48.152;8.590;2023-05-29T05:50:19;12.00;15.70
10304;DHT22;5197;48.152;8.590;2023-05-29T05:52:48;12.40;15.30
10304;DHT22;5197;48.152;8.590;2023-05-29T05:55:15;12.80;14.70
10304;DHT22;5197;48.152;8.590;2023-05-29T05:57:42;13.10;14.20
10304;DHT22;5197;48.152;8.590;2023-05-29T06:00:10;13.40;13.60
10304;DHT22;5197;48.152;8.590;2023-05-29T06:02:40;13.70;12.60
10304;DHT22;5197;48.152;8.590;2023-05-29T06:05:11;14.10;11.40
10304;DHT22;5197;48.152;8.590;2023-05-29T06:07:38;14.50;9.40
10304;DHT22;5197;48.152;8.590;2023-05-29T06:10:06;14.80;8.50
10304;DHT22;5197;48.152;8.590;2023-05-29T06:12:33;15.10;7.20
10304;DHT22;5197;48.152;8.590;2023-05-29T06:15:01;15.40;5.80
10304;DHT22;5197;48.152;8.590;2023-05-29T06:17:31;15.70;4.30
10304;DHT22;5197;48.152;8.590;2023-05-29T06:19:58;16.10;2.70
10304;DHT22;5197;48.152;8.590;2023-05-29T06:22:26;16.40;1.90
10304;DHT22;5197;48.152;8.590;2023-05-29T06:24:53;16.70;1.00
10304;DHT22;5197;48.152;8.590;2023-05-29T06:27:20;16.90;1.00
10304;DHT22;5197;48.152;8.590;2023-05-29T06:29:50;17.00;1.00
10304;DHT22;5197;48.152;8.590;2023-05-29T06:32:17;17.20;1.00
10304;DHT22;5197;48.152;8.590;2023-05-29T06:34:44;17.30;1.00
10304;DHT22;5197;48.152;8.590;2023-05-29T06:37:11;17.20;1.00
10304;DHT22;5197;48.152;8.590;2023-05-29T06:39:39;17.20;1.00
10304;DHT22;5197;48.152;8.590;2023-05-29T06:42:08;16.90;1.00
10304;DHT22;5197;48.152;8.590;2023-05-29T06:44:36;16.90;1.00
10304;DHT22;5197;48.152;8.590;2023-05-29T06:47:05;16.80;1.00
10304;DHT22;5197;48.152;8.590;2023-05-29T06:49:32;16.60;1.00
10304;DHT22;5197;48.152;8.590;2023-05-29T06:52:00;16.40;1.00
10304;DHT22;5197;48.152;8.590;2023-05-29T06:54:28;16.40;1.00
10304;DHT22;5197;48.152;8.590;2023-05-29T06:56:56;16.50;1.00
10304;DHT22;5197;48.152;8.590;2023-05-29T06:59:38;16.70;1.00
10304;DHT22;5197;48.152;8.590;2023-05-29T07:02:06;16.80;1.00
10304;DHT22;5197;48.152;8.590;2023-05-29T07:04:33;16.90;1.00
10304;DHT22;5197;48.152;8.590;2023-05-29T07:07:00;16.90;1.00
10304;DHT22;5197;48.152;8.590;2023-05-29T07:09:28;16.90;1.00
10304;DHT22;5197;48.152;8.590;2023-05-29T07:11:55;16.90;1.00
10304;DHT22;5197;48.152;8.590;2023-05-29T07:14:22;17.10;1.00
10304;DHT22;5197;48.152;8.590;2023-05-29T07:16:49;17.30;1.00
10304;DHT22;5197;48.152;8.590;2023-05-29T07:19:16;17.30;1.00
10304;DHT22;5197;48.152;8.590;2023-05-29T07:21:48;17.40;1.00
10304;DHT22;5197;48.152;8.590;2023-05-29T07:24:15;17.70;1.00
10304;DHT22;5197;48.152;8.590;2023-05-29T07:26:42;17.90;1.00
10304;DHT22;5197;48.152;8.590;2023-05-29T07:29:09;18.00;1.00
10304;DHT22;5197;48.152;8.590;2023-05-29T07:31:38;18.00;1.00
10304;DHT22;5197;48.152;8.590;2023-05-29T07:34:07;17.90;1.00
10304;DHT22;5197;48.152;8.590;2023-05-29T07:36:34;18.00;1.00
10304;DHT22;5197;48.152;8.590;2023-05-29T07:39:02;18.10;1.00
10304;DHT22;5197;48.152;8.590;2023-05-29T07:41:32;18.00;1.00
10304;DHT22;5197;48.152;8.590;2023-05-29T07:43:59;17.90;1.00
10304;DHT22;5197;48.152;8.590;2023-05-29T07:46:26;17.60;1.00
10304;DHT22;5197;48.152;8.590;2023-05-29T07:48:54;17.70;1.00
10304;DHT22;5197;48.152;8.590;2023-05-29T07:51:21;17.80;1.00
10304;DHT22;5197;48.152;8.590;2023-05-29T07:53:48;17.80;1.00
10304;DHT22;5197;48.152;8.590;2023-05-29T07:56:16;17.90;1.00
10304;DHT22;5197;48.152;8.590;2023-05-29T07:58:44;18.00;1.00
10304;DHT22;5197;48.152;8.590;2023-05-29T08:01:12;18.10;1.00
10304;DHT22;5197;48.152;8.590;2023-05-29T08:03:41;18.20;1.00
10304;DHT22;5197;48.152;8.590;2023-05-29T08:06:09;18.20;1.00
10304;DHT22;5197;48.152;8.590;2023-05-29T08:08:37;18.40;1.00
10304;DHT22;5197;48.152;8.590;2023-05-29T08:11:04;18.40;1.00
10304;DHT22;5197;48.152;8.590;2023-05-29T08:13:31;18.50;1.00
10304;DHT22;5197;48.152;8.590;2023-05-29T08:15:58;18.60;1.00
10304;DHT22;5197;48.152;8.590;2023-05-29T08:18:26;18.60;1.00
10304;DHT22;5197;48.152;8.590;2023-05-29T08:20:53;18.70;1.00
10304;DHT22;5197;48.152;8.590;2023-05-29T08:23:21;18.80;1.00
10304;DHT22;5197;48.152;8.590;2023-05-29T08:25:48;18.90;1.00
10304;DHT22;5197;48.152;8.590;2023-05-29T08:28:15;18.90;1.00
10304;DHT22;5197;48.152;8.590;2023-05-29T08:30:43;19.00;1.00
10304;DHT22;5197;48.152;8.590;2023-05-29T08:33:10;19.00;1.00
10304;DHT22;5197;48.152;8.590;2023-05-29T08:35:37;19.20;1.00
10304;DHT22;5197;48.152;8.590;2023-05-29T08:38:05;19.20;1.00
10304;DHT22;5197;48.152;8.590;2023-05-29T08:40:32;19.50;1.00
10304;DHT22;5197;48.152;8.590;2023-05-29T08:43:06;19.50;1.00
10304;DHT22;5197;48.152;8.590;2023-05-29T08:45:43;19.60;1.00
10304;DHT22;5197;48.152;8.590;2023-05-29T08:48:12;19.80;1.00
10304;DHT22;5197;48.152;8.590;2023-05-29T08:50:46;19.40;1.00
10304;DHT22;5197;48.152;8.590;2023-05-29T08:53:14;19.50;1.00
10304;DHT22;5197;48.152;8.590;2023-05-29T08:55:42;19.60;1.00
10304;DHT22;5197;48.152;8.590;2023-05-29T08:58:11;19.60;1.00
10304;DHT22;5197;48.152;8.590;2023-05-29T09:00:38;19.70;1.00
10304;DHT22;5197;48.152;8.590;2023-05-29T09:03:07;19.80;1.00
10304;DHT22;5197;48.152;8.590;2023-05-29T09:05:35;19.50;1.00
10304;DHT22;5197;48.152;8.590;2023-05-29T09:08:08;19.60;1.00
10304;DHT22;5197;48.152;8.590;2023-05-29T09:10:36;19.70;1.00
10304;DHT22;5197;48.152;8.590;2023-05-29T09:13:05;19.70;1.00
10304;DHT22;5197;48.152;8.590;2023-05-29T09:15:33;19.80;1.00
10304;DHT22;5197;48.152;8.590;2023-05-29T09:18:00;20.00;1.00
10304;DHT22;5197;48.152;8.590;2023-05-29T09:20:28;20.00;1.00
10304;DHT22;5197;48.152;8.590;2023-05-29T09:23:00;20.10;1.00
10304;DHT22;5197;48.152;8.590;2023-05-29T09:25:32;20.20;1.00
10304;DHT22;5197;48.152;8.590;2023-05-29T09:28:04;20.40;1.00
10304;DHT22;5197;48.152;8.590;2023-05-29T09:30:46;20.50;1.00
10304;DHT22;5197;48.152;8.590;2023-05-29T09:33:18;20.60;1.00
10304;DHT22;5197;48.152;8.590;2023-05-29T09:35:49;20.80;1.00
10304;DHT22;5197;48.152;8.590;2023-05-29T09:38:19;20.90;1.00
10304;DHT22;5197;48.152;8.590;2023-05-29T09:41:06;21.00;1.00
10304;DHT22;5197;48.152;8.590;2023-05-29T09:43:34;21.00;1.00
10304;DHT22;5197;48.152;8.590;2023-05-29T09:46:01;21.20;1.00
10304;DHT22;5197;48.152;8.590;2023-05-29T09:48:29;21.30;1.00
10304;DHT22;5197;48.152;8.590;2023-05-29T09:50:57;21.10;1.00
10304;DHT22;5197;48.152;8.590;2023-05-29T09:53:27;21.00;1.00
10304;DHT22;5197;48.152;8.590;2023-05-29T09:55:56;21.10;1.00
10304;DHT22;5197;48.152;8.590;2023-05-29T09:58:26;21.00;1.00
10304;DHT22;5197;48.152;8.590;2023-05-29T10:00:53;21.00;1.00
10304;DHT22;5197;48.152;8.590;2023-05-29T10:03:20;21.10;1.00
10304;DHT22;5197;48.152;8.590;2023-05-29T10:05:55;21.40;1.00
10304;DHT22;5197;48.152;8.590;2023-05-29T10:08:25;21.50;1.00
10304;DHT22;5197;48.152;8.590;2023-05-29T10:10:59;21.30;1.00
10304;DHT22;5197;48.152;8.590;2023-05-29T10:13:32;21.30;1.00
10304;DHT22;5197;48.152;8.590;2023-05-29T10:16:01;21.10;1.00
10304;DHT22;5197;48.152;8.590;2023-05-29T10:18:37;21.10;1.00
10304;DHT22;5197;48.152;8.590;2023-05-29T10:21:05;21.00;1.00
10304;DHT22;5197;48.152;8.590;2023-05-29T10:23:34;21.10;1.00
10304;DHT22;5197;48.152;8.590;2023-05-29T10:26:24;21.10;1.00
10304;DHT22;5197;48.152;8.590;2023-05-29T10:40:09;21.60;1.00
10304;DHT22;5197;48.152;8.590;2023-05-29T10:42:47;21.40;1.00
10304;DHT22;5197;48.152;8.590;2023-05-29T10:50:38;21.50;1.00
10304;DHT22;5197;48.152;8.590;2023-05-29T10:53:08;21.50;1.00
10304;DHT22;5197;48.152;8.590;2023-05-29T10:55:38;21.60;1.00
10304;DHT22;5197;48.152;8.590;2023-05-29T10:58:09;21.80;1.00
10304;DHT22;5197;48.152;8.590;2023-05-29T11:00:42;21.80;1.00
10304;DHT22;5197;48.152;8.590;2023-05-29T11:03:10;21.70;1.00
10304;DHT22;5197;48.152;8.590;2023-05-29T11:06:02;21.80;1.00
10304;DHT22;5197;48.152;8.590;2023-05-29T11:11:14;21.80;1.00
10304;DHT22;5197;48.152;8.590;2023-05-29T11:13:52;21.70;1.00
10304;DHT22;5197;48.152;8.590;2023-05-29T11:18:56;22.00;1.00
10304;DHT22;5197;48.152;8.590;2023-05-29T11:21:34;22.30;1.00
10304;DHT22;5197;48.152;8.590;2023-05-29T11:24:05;22.60;1.00
10304;DHT22;5197;48.152;8.590;2023-05-29T11:26:37;22.70;1.00
10304;DHT22;5197;48.152;8.590;2023-05-29T11:29:05;22.80;1.00
10304;DHT22;5197;48.152;8.590;2023-05-29T11:31:33;22.80;1.00
10304;DHT22;5197;48.152;8.590;2023-05-29T11:34:02;22.70;1.00
10304;DHT22;5197;48.152;8.590;2023-05-29T11:36:33;22.90;1.00
10304;DHT22;5197;48.152;8.590;2023-05-29T11:39:01;22.90;1.00
10304;DHT22;5197;48.152;8.590;2023-05-29T11:41:28;23.20;1.00
10304;DHT22;5197;48.152;8.590;2023-05-29T11:43:59;23.40;1.00
10304;DHT22;5197;48.152;8.590;2023-05-29T11:46:26;23.50;1.00
10304;DHT22;5197;48.152;8.590;2023-05-29T11:48:54;23.50;1.00
10304;DHT22;5197;48.152;8.590;2023-05-29T11:51:22;23.60;1.00
10304;DHT22;5197;48.152;8.590;2023-05-29T11:53:49;23.70;1.00
10304;DHT22;5197;48.152;8.590;2023-05-29T11:56:20;23.80;1.00
10304;DHT22;5197;48.152;8.590;2023-05-29T11:58:47;23.80;1.00
10304;DHT22;5197;48.152;8.590;2023-05-29T12:01:16;23.90;1.00
10304;DHT22;5197;48.152;8.590;2023-05-29T12:03:43;23.80;1.00
10304;DHT22;5197;48.152;8.590;2023-05-29T12:06:10;23.90;1.00
10304;DHT22;5197;48.152;8.590;2023-05-29T12:08:38;23.90;1.00
10304;DHT22;5197;48.152;8.590;2023-05-29T12:11:06;24.00;1.00
10304;DHT22;5197;48.152;8.590;2023-05-29T12:13:33;24.00;1.00
10304;DHT22;5197;48.152;8.590;2023-05-29T12:16:03;23.90;1.00
10304;DHT22;5197;48.152;8.590;2023-05-29T12:18:31;23.60;1.00
10304;DHT22;5197;48.152;8.590;2023-05-29T12:21:00;23.60;1.00
10304;DHT22;5197;48.152;8.590;2023-05-29T12:23:28;23.30;1.00
10304;DHT22;5197;48.152;8.590;2023-05-29T12:25:58;23.30;1.00
10304;DHT22;5197;48.152;8.590;2023-05-29T12:28:25;23.10;1.00
10304;DHT22;5197;48.152;8.590;2023-05-29T12:30:58;22.80;1.00
10304;DHT22;5197;48.152;8.590;2023-05-29T12:33:30;22.80;1.00
10304;DHT22;5197;48.152;8.590;2023-05-29T12:36:08;23.20;1.00
10304;DHT22;5197;48.152;8.590;2023-05-29T12:38:56;23.50;1.00
10304;DHT22;5197;48.152;8.590;2023-05-29T12:41:26;23.60;1.00
10304;DHT22;5197;48.152;8.590;2023-05-29T12:43:54;23.60;1.00
10304;DHT22;5197;48.152;8.590;2023-05-29T12:46:25;23.00;1.00
10304;DHT22;5197;48.152;8.590;2023-05-29T12:48:53;22.80;1.00
10304;DHT22;5197;48.152;8.590;2023-05-29T12:51:28;22.80;1.00
10304;DHT22;5197;48.152;8.590;2023-05-29T12:53:55;23.00;1.00
10304;DHT22;5197;48.152;8.590;2023-05-29T12:56:24;23.00;1.00
10304;DHT22;5197;48.152;8.590;2023-05-29T12:58:53;23.30;1.00
10304;DHT22;5197;48.152;8.590;2023-05-29T13:01:20;23.40;1.00
10304;DHT22;5197;48.152;8.590;2023-05-29T13:03:49;23.50;1.00
10304;DHT22;5197;48.152;8.590;2023-05-29T13:06:16;23.60;1.00
10304;DHT22;5197;48.152;8.590;2023-05-29T13:08:43;23.50;1.00
10304;DHT22;5197;48.152;8.590;2023-05-29T13:11:11;23.50;1.00
10304;DHT22;5197;48.152;8.590;2023-05-29T13:13:38;23.50;1.00
10304;DHT22;5197;48.152;8.590;2023-05-29T13:16:06;23.50;1.00
10304;DHT22;5197;48.152;8.590;2023-05-29T13:18:33;23.70;1.00
10304;DHT22;5197;48.152;8.590;2023-05-29T13:21:01;23.70;1.00
10304;DHT22;5197;48.152;8.590;2023-05-29T13:23:28;23.80;1.00
10304;DHT22;5197;48.152;8.590;2023-05-29T13:25:55;24.00;1.00
10304;DHT22;5197;48.152;8.590;2023-05-29T13:28:22;24.10;1.00
10304;DHT22;5197;48.152;8.590;2023-05-29T13:30:50;23.80;1.00
10304;DHT22;5197;48.152;8.590;2023-05-29T13:33:18;23.40;1.00
10304;DHT22;5197;48.152;8.590;2023-05-29T13:35:45;23.20;1.00
10304;DHT22;5197;48.152;8.590;2023-05-29T13:38:12;23.20;1.00
10304;DHT22;5197;48.152;8.590;2023-05-29T13:40:39;23.20;1.00
10304;DHT22;5197;48.152;8.590;2023-05-29T13:43:06;23.20;1.00
10304;DHT22;5197;48.152;8.590;2023-05-29T13:45:33;23.40;1.00
10304;DHT22;5197;48.152;8.590;2023-05-29T13:48:00;23.50;1.00
10304;DHT22;5197;48.152;8.590;2023-05-29T13:50:27;23.40;1.00
10304;DHT22;5197;48.152;8.590;2023-05-29T13:52:54;23.30;1.00
10304;DHT22;5197;48.152;8.590;2023-05-29T13:55:21;23.30;1.00
10304;DHT22;5197;48.152;8.590;2023-05-29T13:57:48;23.30;1.00
10304;DHT22;5197;48.152;8.590;2023-05-29T14:00:16;23.40;1.00
10304;DHT22;5197;48.152;8.590;2023-05-29T14:02:43;23.40;1.00
10304;DHT22;5197;48.152;8.590;2023-05-29T14:05:11;23.50;1.00
10304;DHT22;5197;48.152;8.590;2023-05-29T14:07:38;23.50;1.00
10304;DHT22;5197;48.152;8.590;2023-05-29T14:10:05;23.50;1.00
10304;DHT22;5197;48.152;8.590;2023-05-29T14:12:32;23.80;1.00
10304;DHT22;5197;48.152;8.590;2023-05-29T14:14:59;23.80;1.00
10304;DHT22;5197;48.152;8.590;2023-05-29T14:17:26;23.90;1.00
10304;DHT22;5197;48.152;8.590;2023-05-29T14:19:53;24.00;1.00
10304;DHT22;5197;48.152;8.590;2023-05-29T14:22:23;24.10;1.00
10304;DHT22;5197;48.152;8.590;2023-05-29T14:24:50;24.10;1.00
10304;DHT22;5197;48.152;8.590;2023-05-29T14:27:18;24.00;1.00
10304;DHT22;5197;48.152;8.590;2023-05-29T14:29:47;23.90;1.00
10304;DHT22;5197;48.152;8.590;2023-05-29T14:32:14;24.10;1.00
10304;DHT22;5197;48.152;8.590;2023-05-29T14:34:41;24.10;1.00
10304;DHT22;5197;48.152;8.590;2023-05-29T14:37:08;24.00;1.00
10304;DHT22;5197;48.152;8.590;2023-05-29T14:39:36;23.90;1.00
10304;DHT22;5197;48.152;8.590;2023-05-29T14:42:03;24.00;1.00
10304;DHT22;5197;48.152;8.590;2023-05-29T14:44:31;24.20;1.00
10304;DHT22;5197;48.152;8.590;2023-05-29T14:46:58;24.30;1.00
10304;DHT22;5197;48.152;8.590;2023-05-29T14:49:26;24.60;1.00
10304;DHT22;5197;48.152;8.590;2023-05-29T14:51:58;24.70;1.00
10304;DHT22;5197;48.152;8.590;2023-05-29T14:54:26;24.80;1.00
10304;DHT22;5197;48.152;8.590;2023-05-29T14:56:55;24.90;1.00
10304;DHT22;5197;48.152;8.590;2023-05-29T14:59:22;25.10;1.00
10304;DHT22;5197;48.152;8.590;2023-05-29T15:01:50;25.20;1.00
10304;DHT22;5197;48.152;8.590;2023-05-29T15:04:17;25.00;1.00
10304;DHT22;5197;48.152;8.590;2023-05-29T15:06:44;24.90;1.00
10304;DHT22;5197;48.152;8.590;2023-05-29T15:09:21;24.80;1.00
10304;DHT22;5197;48.152;8.590;2023-05-29T15:11:48;24.60;1.00
10304;DHT22;5197;48.152;8.590;2023-05-29T15:14:16;24.40;1.00
10304;DHT22;5197;48.152;8.590;2023-05-29T15:16:44;24.40;1.00
10304;DHT22;5197;48.152;8.590;2023-05-29T15:19:12;24.50;1.00
10304;DHT22;5197;48.152;8.590;2023-05-29T15:21:39;24.60;1.00
10304;DHT22;5197;48.152;8.590;2023-05-29T15:24:06;24.40;1.00
10304;DHT22;5197;48.152;8.590;2023-05-29T15:26:36;24.40;1.00
10304;DHT22;5197;48.152;8.590;2023-05-29T15:29:04;24.40;1.00
10304;DHT22;5197;48.152;8.590;2023-05-29T15:31:31;24.40;1.00
10304;DHT22;5197;48.152;8.590;2023-05-29T15:33:59;24.30;1.00
10304;DHT22;5197;48.152;8.590;2023-05-29T15:36:26;24.50;1.00
10304;DHT22;5197;48.152;8.590;2023-05-29T15:38:53;24.50;1.00
10304;DHT22;5197;48.152;8.590;2023-05-29T15:41:20;24.60;1.00
10304;DHT22;5197;48.152;8.590;2023-05-29T15:43:47;24.70;1.00
10304;DHT22;5197;48.152;8.590;2023-05-29T15:46:14;24.80;1.00
10304;DHT22;5197;48.152;8.590;2023-05-29T15:48:42;24.90;1.00
10304;DHT22;5197;48.152;8.590;2023-05-29T15:51:09;24.80;1.00
10304;DHT22;5197;48.152;8.590;2023-05-29T15:53:36;24.40;1.00
10304;DHT22;5197;48.152;8.590;2023-05-29T15:56:03;24.20;1.00
10304;DHT22;5197;48.152;8.590;2023-05-29T15:58:31;24.20;1.00
10304;DHT22;5197;48.152;8.590;2023-05-29T16:00:58;24.20;1.00
10304;DHT22;5197;48.152;8.590;2023-05-29T16:03:25;24.00;1.00
10304;DHT22;5197;48.152;8.590;2023-05-29T16:05:52;23.90;1.00
10304;DHT22;5197;48.152;8.590;2023-05-29T16:08:20;23.50;1.00
10304;DHT22;5197;48.152;8.590;2023-05-29T16:10:47;23.30;1.00
10304;DHT22;5197;48.152;8.590;2023-05-29T16:13:14;23.50;1.00
10304;DHT22;5197;48.152;8.590;2023-05-29T16:15:42;23.60;1.00
10304;DHT22;5197;48.152;8.590;2023-05-29T16:18:13;23.80;1.00
10304;DHT22;5197;48.152;8.590;2023-05-29T16:20:41;23.80;1.00
10304;DHT22;5197;48.152;8.590;2023-05-29T16:23:08;23.90;1.00
10304;DHT22;5197;48.152;8.590;2023-05-29T16:25:35;23.90;1.00
10304;DHT22;5197;48.152;8.590;2023-05-29T16:28:02;23.70;1.00
10304;DHT22;5197;48.152;8.590;2023-05-29T16:30:30;23.60;1.00
10304;DHT22;5197;48.152;8.590;2023-05-29T16:32:57;23.60;1.00
10304;DHT22;5197;48.152;8.590;2023-05-29T16:35:24;23.40;1.00
10304;DHT22;5197;48.152;8.590;2023-05-29T16:37:52;23.50;1.00
10304;DHT22;5197;48.152;8.590;2023-05-29T16:40:19;23.70;1.00
10304;DHT22;5197;48.152;8.590;2023-05-29T16:42:47;24.00;1.00